Time,TemperatureF,DewpointF,PressureIn,WindDirection,WindDirectionDegrees,WindSpeedMPH,WindSpeedGustMPH,Humidity,HourlyPrecipIn,Conditions,Clouds,dailyrainin,SolarRadiationWatts/m^2,SoftwareType,DateUTC
2013-01-01 00:03:00,42.0,40.0,-100.00,SSE,157,0.0,0.0,94,0.00,,,0.00,0.000000,,2013-01-01 05:03:00,
2013-01-01 00:33:00,41.0,39.0,-100.00,NW,306,0.0,2.0,94,0.00,,,0.00,0.000000,,2013-01-01 05:33:00,
2013-01-01 00:42:00,41.0,39.0,-100.00,NW,306,0.0,2.0,94,0.00,,,0.00,0.000000,,2013-01-01 05:42:00,
2013-01-01 00:53:00,41.0,39.0,-100.00,NW,306,0.0,2.0,94,0.00,,,0.00,0.000000,,2013-01-01 05:53:00,
2013-01-01 01:02:00,41.0,39.0,-100.00,NW,306,0.0,2.0,94,0.00,,,0.00,0.000000,,2013-01-01 06:02:00,
2013-01-01 01:33:00,40.0,38.0,-100.00,SSE,151,0.0,1.0,94,0.00,,,0.00,0.000000,,2013-01-01 06:33:00,
2013-01-01 01:43:00,40.0,38.0,-100.00,SSE,151,0.0,1.0,94,0.00,,,0.00,0.000000,,2013-01-01 06:43:00,
2013-01-01 01:52:00,40.0,38.0,-100.00,SSE,151,0.0,1.0,94,0.00,,,0.00,0.000000,,2013-01-01 06:52:00,
2013-01-01 02:02:00,40.0,38.0,-100.00,SSE,151,0.0,1.0,94,0.00,,,0.00,0.000000,,2013-01-01 07:02:00,
2013-01-01 02:22:00,40.0,38.0,-100.00,NW,321,1.0,2.0,94,0.00,,,0.00,0.000000,,2013-01-01 07:22:00,
2013-01-01 02:32:00,40.0,38.0,-100.00,NW,321,1.0,2.0,94,0.00,,,0.00,0.000000,,2013-01-01 07:32:00,
2013-01-01 02:42:00,40.0,38.0,-100.00,NW,321,1.0,2.0,94,0.00,,,0.00,0.000000,,2013-01-01 07:42:00,
2013-01-01 02:53:00,40.0,38.0,-100.00,NW,321,1.0,2.0,94,0.00,,,0.00,0.000000,,2013-01-01 07:53:00,
2013-01-01 03:02:00,40.0,38.0,-100.00,NW,321,1.0,2.0,94,0.00,,,0.00,0.000000,,2013-01-01 08:02:00,
2013-01-01 03:32:00,40.0,38.0,-100.00,WNW,290,0.0,2.0,94,0.00,,,0.00,0.000000,,2013-01-01 08:32:00,
2013-01-01 03:42:00,40.0,38.0,-100.00,WNW,290,0.0,2.0,94,0.00,,,0.00,0.000000,,2013-01-01 08:42:00,
2013-01-01 03:53:00,40.0,38.0,-100.00,WNW,290,0.0,2.0,94,0.00,,,0.00,0.000000,,2013-01-01 08:53:00,
2013-01-01 04:02:00,40.0,38.0,-100.00,WNW,290,0.0,2.0,94,0.00,,,0.00,0.000000,,2013-01-01 09:02:00,
2013-01-01 04:22:00,41.0,39.0,-100.00,SW,222,1.0,2.0,94,0.00,,,0.00,0.000000,,2013-01-01 09:22:00,
2013-01-01 04:32:00,41.0,39.0,-100.00,SW,222,1.0,2.0,94,0.00,,,0.00,0.000000,,2013-01-01 09:32:00,
2013-01-01 04:42:00,41.0,39.0,-100.00,SW,222,1.0,2.0,94,0.00,,,0.00,0.000000,,2013-01-01 09:42:00,
2013-01-01 04:52:00,41.0,39.0,-100.00,SW,222,1.0,2.0,94,0.00,,,0.00,0.000000,,2013-01-01 09:52:00,
2013-01-01 05:02:00,41.0,39.0,-100.00,SW,222,1.0,2.0,94,0.00,,,0.00,0.000000,,2013-01-01 10:02:00,
2013-01-01 05:33:00,41.0,39.0,-100.00,SSE,154,0.0,1.0,94,0.00,,,0.00,0.000000,,2013-01-01 10:33:00,
2013-01-01 05:43:00,41.0,39.0,-100.00,SSE,154,0.0,1.0,94,0.00,,,0.00,0.000000,,2013-01-01 10:43:00,
2013-01-01 05:53:00,41.0,39.0,-100.00,SSE,154,0.0,1.0,94,0.00,,,0.00,0.000000,,2013-01-01 10:53:00,
2013-01-01 06:02:00,41.0,39.0,-100.00,SSE,154,0.0,1.0,94,0.00,,,0.00,0.000000,,2013-01-01 11:02:00,
2013-01-01 06:23:00,41.0,39.0,-100.00,ESE,111,1.0,2.0,94,0.00,,,0.00,0.000000,,2013-01-01 11:23:00,
2013-01-01 06:33:00,41.0,39.0,-100.00,ESE,111,1.0,2.0,94,0.00,,,0.00,0.000000,,2013-01-01 11:33:00,
2013-01-01 06:43:00,41.0,39.0,-100.00,ESE,111,1.0,2.0,94,0.00,,,0.00,0.000000,,2013-01-01 11:43:00,
2013-01-01 06:53:00,41.0,39.0,-100.00,ESE,111,1.0,2.0,94,0.00,,,0.00,0.000000,,2013-01-01 11:53:00,
2013-01-01 07:03:00,41.0,39.0,-100.00,ESE,111,1.0,2.0,94,0.00,,,0.00,0.000000,,2013-01-01 12:03:00,
2013-01-01 07:33:00,41.0,39.0,-100.00,ESE,109,1.0,2.0,94,0.00,,,0.00,0.000000,,2013-01-01 12:33:00,
2013-01-01 07:43:00,41.0,39.0,-100.00,ESE,109,1.0,2.0,94,0.00,,,0.00,0.000000,,2013-01-01 12:43:00,
2013-01-01 07:53:00,41.0,39.0,-100.00,ESE,109,1.0,2.0,94,0.00,,,0.00,0.000000,,2013-01-01 12:53:00,
2013-01-01 08:03:00,41.0,39.0,-100.00,ESE,109,1.0,2.0,94,0.00,,,0.00,0.000000,,2013-01-01 13:03:00,
2013-01-01 08:33:00,42.0,40.0,-100.00,SE,142,1.0,2.0,94,0.00,,,0.00,13.000000,,2013-01-01 13:33:00,
2013-01-01 08:43:00,42.0,40.0,-100.00,SE,142,1.0,2.0,94,0.00,,,0.00,13.000000,,2013-01-01 13:43:00,
2013-01-01 08:53:00,42.0,40.0,-100.00,SE,142,1.0,2.0,94,0.00,,,0.00,13.000000,,2013-01-01 13:53:00,
2013-01-01 09:02:00,42.0,40.0,-100.00,SE,142,1.0,2.0,94,0.00,,,0.00,13.000000,,2013-01-01 14:02:00,
2013-01-01 09:33:00,52.0,51.0,-100.00,WSW,249,2.0,5.0,95,0.00,,,0.00,85.000000,,2013-01-01 14:33:00,
2013-01-01 09:43:00,52.0,51.0,-100.00,WSW,249,2.0,5.0,95,0.00,,,0.00,85.000000,,2013-01-01 14:43:00,
2013-01-01 09:53:00,52.0,51.0,-100.00,WSW,249,2.0,5.0,95,0.00,,,0.00,85.000000,,2013-01-01 14:53:00,
2013-01-01 10:03:00,52.0,51.0,-100.00,WSW,249,2.0,5.0,95,0.00,,,0.00,85.000000,,2013-01-01 15:03:00,
2013-01-01 10:33:00,57.0,56.0,-100.00,West,277,2.0,6.0,95,0.00,,,0.00,179.000000,,2013-01-01 15:33:00,
2013-01-01 10:43:00,57.0,56.0,-100.00,West,277,2.0,6.0,95,0.00,,,0.00,179.000000,,2013-01-01 15:43:00,
2013-01-01 10:53:00,57.0,56.0,-100.00,West,277,2.0,6.0,95,0.00,,,0.00,179.000000,,2013-01-01 15:53:00,
2013-01-01 11:02:00,57.0,56.0,-100.00,West,277,2.0,6.0,95,0.00,,,0.00,179.000000,,2013-01-01 16:02:00,
2013-01-01 11:33:00,66.0,57.0,-100.00,WSW,243,3.0,6.0,73,0.00,,,0.00,312.000000,,2013-01-01 16:33:00,
2013-01-01 11:43:00,66.0,57.0,-100.00,WSW,243,3.0,6.0,73,0.00,,,0.00,312.000000,,2013-01-01 16:43:00,
2013-01-01 11:53:00,66.0,57.0,-100.00,WSW,243,3.0,6.0,73,0.00,,,0.00,312.000000,,2013-01-01 16:53:00,
2013-01-01 12:02:00,66.0,57.0,-100.00,WSW,243,3.0,6.0,73,0.00,,,0.00,312.000000,,2013-01-01 17:02:00,
2013-01-01 12:33:00,71.0,57.0,-100.00,SW,217,4.0,12.0,62,0.00,,,0.00,373.000000,,2013-01-01 17:33:00,
2013-01-01 12:43:00,71.0,57.0,-100.00,SW,217,4.0,12.0,62,0.00,,,0.00,373.000000,,2013-01-01 17:43:00,
2013-01-01 12:53:00,71.0,57.0,-100.00,SW,217,4.0,12.0,62,0.00,,,0.00,373.000000,,2013-01-01 17:53:00,
2013-01-01 13:03:00,71.0,57.0,-100.00,SW,217,4.0,12.0,62,0.00,,,0.00,373.000000,,2013-01-01 18:03:00,
2013-01-01 13:33:00,72.0,56.0,-100.00,WSW,242,4.0,11.0,57,0.00,,,0.00,382.000000,,2013-01-01 18:33:00,
2013-01-01 13:43:00,72.0,56.0,-100.00,WSW,242,4.0,11.0,57,0.00,,,0.00,382.000000,,2013-01-01 18:43:00,
2013-01-01 13:53:00,72.0,56.0,-100.00,WSW,242,4.0,11.0,57,0.00,,,0.00,382.000000,,2013-01-01 18:53:00,
2013-01-01 14:02:00,72.0,56.0,-100.00,WSW,242,4.0,11.0,57,0.00,,,0.00,382.000000,,2013-01-01 19:02:00,
2013-01-01 14:33:00,74.0,56.0,-100.00,West,269,5.0,14.0,54,0.00,,,0.00,456.000000,,2013-01-01 19:33:00,
2013-01-01 14:43:00,74.0,56.0,-100.00,West,269,5.0,14.0,54,0.00,,,0.00,456.000000,,2013-01-01 19:43:00,
2013-01-01 14:53:00,74.0,56.0,-100.00,West,269,5.0,14.0,54,0.00,,,0.00,456.000000,,2013-01-01 19:53:00,
2013-01-01 15:02:00,74.0,56.0,-100.00,West,269,5.0,14.0,54,0.00,,,0.00,456.000000,,2013-01-01 20:02:00,
2013-01-01 15:23:00,75.0,57.0,-100.00,West,276,6.0,16.0,53,0.00,,,0.00,436.000000,,2013-01-01 20:23:00,
2013-01-01 15:32:00,75.0,57.0,-100.00,West,276,6.0,16.0,53,0.00,,,0.00,436.000000,,2013-01-01 20:32:00,
2013-01-01 15:42:00,75.0,57.0,-100.00,West,276,6.0,16.0,53,0.00,,,0.00,436.000000,,2013-01-01 20:42:00,
2013-01-01 15:53:00,75.0,57.0,-100.00,West,276,6.0,16.0,53,0.00,,,0.00,436.000000,,2013-01-01 20:53:00,
2013-01-01 16:03:00,75.0,57.0,-100.00,West,276,6.0,16.0,53,0.00,,,0.00,436.000000,,2013-01-01 21:03:00,
2013-01-01 16:33:00,73.0,55.0,-100.00,West,274,4.0,11.0,54,0.00,,,0.00,276.000000,,2013-01-01 21:33:00,
2013-01-01 16:43:00,73.0,55.0,-100.00,West,274,4.0,11.0,54,0.00,,,0.00,276.000000,,2013-01-01 21:43:00,
2013-01-01 16:53:00,73.0,55.0,-100.00,West,274,4.0,11.0,54,0.00,,,0.00,276.000000,,2013-01-01 21:53:00,
2013-01-01 17:03:00,73.0,55.0,-100.00,West,274,4.0,11.0,54,0.00,,,0.00,276.000000,,2013-01-01 22:03:00,
2013-01-01 17:33:00,69.0,56.0,-100.00,ESE,115,1.0,9.0,64,0.00,,,0.00,71.000000,,2013-01-01 22:33:00,
2013-01-01 17:43:00,69.0,56.0,-100.00,ESE,115,1.0,9.0,64,0.00,,,0.00,71.000000,,2013-01-01 22:43:00,
2013-01-01 17:53:00,69.0,56.0,-100.00,ESE,115,1.0,9.0,64,0.00,,,0.00,71.000000,,2013-01-01 22:53:00,
2013-01-01 18:03:00,69.0,56.0,-100.00,ESE,115,1.0,9.0,64,0.00,,,0.00,71.000000,,2013-01-01 23:03:00,
2013-01-01 18:22:00,62.0,57.0,-100.00,SSE,160,0.0,3.0,83,0.00,,,0.00,8.000000,,2013-01-01 23:22:00,
2013-01-01 18:33:00,62.0,57.0,-100.00,SSE,160,0.0,3.0,83,0.00,,,0.00,8.000000,,2013-01-01 23:33:00,
2013-01-01 18:42:00,62.0,57.0,-100.00,SSE,160,0.0,3.0,83,0.00,,,0.00,8.000000,,2013-01-01 23:42:00,
2013-01-01 18:53:00,62.0,57.0,-100.00,SSE,160,0.0,3.0,83,0.00,,,0.00,8.000000,,2013-01-01 23:53:00,
2013-01-01 19:03:00,62.0,57.0,-100.00,SSE,160,0.0,3.0,83,0.00,,,0.00,8.000000,,2013-01-02 00:03:00,
2013-01-01 19:33:00,62.0,57.0,-100.00,ESE,116,2.0,3.0,84,0.00,,,0.00,0.000000,,2013-01-02 00:33:00,
2013-01-01 19:43:00,62.0,57.0,-100.00,ESE,116,2.0,3.0,84,0.00,,,0.00,0.000000,,2013-01-02 00:43:00,
2013-01-01 19:53:00,62.0,57.0,-100.00,ESE,116,2.0,3.0,84,0.00,,,0.00,0.000000,,2013-01-02 00:53:00,
2013-01-01 20:02:00,62.0,57.0,-100.00,ESE,116,2.0,3.0,84,0.00,,,0.00,0.000000,,2013-01-02 01:02:00,
2013-01-01 20:22:00,62.0,56.0,-100.00,ESE,122,1.0,3.0,82,0.00,,,0.00,0.000000,,2013-01-02 01:22:00,
2013-01-01 20:33:00,62.0,56.0,-100.00,ESE,122,1.0,3.0,82,0.00,,,0.00,0.000000,,2013-01-02 01:33:00,
2013-01-01 20:42:00,62.0,56.0,-100.00,ESE,122,1.0,3.0,82,0.00,,,0.00,0.000000,,2013-01-02 01:42:00,
2013-01-01 20:53:00,62.0,56.0,-100.00,ESE,122,1.0,3.0,82,0.00,,,0.00,0.000000,,2013-01-02 01:53:00,
2013-01-01 21:02:00,62.0,56.0,-100.00,ESE,122,1.0,3.0,82,0.00,,,0.00,0.000000,,2013-01-02 02:02:00,
2013-01-01 21:22:00,61.0,56.0,-100.00,ESE,109,1.0,4.0,83,0.00,,,0.00,0.000000,,2013-01-02 02:22:00,
2013-01-01 21:32:00,61.0,56.0,-100.00,ESE,109,1.0,4.0,83,0.00,,,0.00,0.000000,,2013-01-02 02:32:00,
2013-01-01 21:43:00,61.0,56.0,-100.00,ESE,109,1.0,4.0,83,0.00,,,0.00,0.000000,,2013-01-02 02:43:00,
2013-01-01 21:53:00,61.0,56.0,-100.00,ESE,109,1.0,4.0,83,0.00,,,0.00,0.000000,,2013-01-02 02:53:00,
2013-01-01 22:02:00,61.0,56.0,-100.00,ESE,109,1.0,4.0,83,0.00,,,0.00,0.000000,,2013-01-02 03:02:00,
2013-01-01 22:32:00,60.0,54.0,-100.00,West,275,1.0,4.0,82,0.00,,,0.00,0.000000,,2013-01-02 03:32:00,
2013-01-01 22:42:00,60.0,54.0,-100.00,West,275,1.0,4.0,82,0.00,,,0.00,0.000000,,2013-01-02 03:42:00,
2013-01-01 22:53:00,60.0,54.0,-100.00,West,275,1.0,4.0,82,0.00,,,0.00,0.000000,,2013-01-02 03:53:00,
2013-01-01 23:03:00,60.0,54.0,-100.00,West,275,1.0,4.0,82,0.00,,,0.00,0.000000,,2013-01-02 04:03:00,
2013-01-01 23:32:00,58.0,54.0,-100.00,ESE,117,1.0,4.0,85,0.00,,,0.00,0.000000,,2013-01-02 04:32:00,
2013-01-01 23:42:00,58.0,54.0,-100.00,ESE,117,1.0,4.0,85,0.00,,,0.00,0.000000,,2013-01-02 04:42:00,
2013-01-01 23:53:00,58.0,54.0,-100.00,ESE,117,1.0,4.0,85,0.00,,,0.00,0.000000,,2013-01-02 04:53:00,